sensor_id;sensor_type;location;lat;lon;timestamp;temperature;humidity
8820;DHT22;4446;50.876;4.736;2023-10-31T00:00:53;10.20;99.90
8820;DHT22;4446;50.876;4.736;2023-10-31T00:03:20;10.10;99.90
8820;DHT22;4446;50.876;4.736;2023-10-31T00:05:46;10.20;99.90
8820;DHT22;4446;50.876;4.736;2023-10-31T00:08:15;10.20;99.90
8820;DHT22;4446;50.876;4.736;2023-10-31T00:10:42;10.20;99.90
8820;DHT22;4446;50.876;4.736;2023-10-31T00:13:10;10.20;99.90
8820;DHT22;4446;50.876;4.736;2023-10-31T00:15:37;10.20;99.90
8820;DHT22;4446;50.876;4.736;2023-10-31T00:18:04;10.20;99.90
8820;DHT22;4446;50.876;4.736;2023-10-31T00:20:31;10.20;99.90
8820;DHT22;4446;50.876;4.736;2023-10-31T00:22:58;10.20;99.90
8820;DHT22;4446;50.876;4.736;2023-10-31T00:25:26;10.30;99.90
8820;DHT22;4446;50.876;4.736;2023-10-31T00:27:53;10.20;99.90
8820;DHT22;4446;50.876;4.736;2023-10-31T00:30:20;10.20;99.90
8820;DHT22;4446;50.876;4.736;2023-10-31T00:32:48;10.20;99.90
8820;DHT22;4446;50.876;4.736;2023-10-31T00:35:15;10.20;99.90
8820;DHT22;4446;50.876;4.736;2023-10-31T00:37:42;10.20;99.90
8820;DHT22;4446;50.876;4.736;2023-10-31T00:40:09;10.20;99.90
8820;DHT22;4446;50.876;4.736;2023-10-31T00:42:38;10.10;99.90
8820;DHT22;4446;50.876;4.736;2023-10-31T00:45:07;10.20;99.90
8820;DHT22;4446;50.876;4.736;2023-10-31T00:47:34;10.10;99.90
8820;DHT22;4446;50.876;4.736;2023-10-31T00:50:01;10.10;99.90
8820;DHT22;4446;50.876;4.736;2023-10-31T00:52:28;10.20;99.90
8820;DHT22;4446;50.876;4.736;2023-10-31T00:54:55;10.20;99.90
8820;DHT22;4446;50.876;4.736;2023-10-31T00:57:22;10.20;99.90
8820;DHT22;4446;50.876;4.736;2023-10-31T00:59:50;10.20;99.90
8820;DHT22;4446;50.876;4.736;2023-10-31T01:02:17;10.20;99.90
8820;DHT22;4446;50.876;4.736;2023-10-31T01:04:44;10.30;99.90
8820;DHT22;4446;50.876;4.736;2023-10-31T01:07:11;10.20;99.90
8820;DHT22;4446;50.876;4.736;2023-10-31T01:09:42;10.20;99.90
8820;DHT22;4446;50.876;4.736;2023-10-31T01:12:10;10.20;99.90
8820;DHT22;4446;50.876;4.736;2023-10-31T01:14:37;10.30;99.90
8820;DHT22;4446;50.876;4.736;2023-10-31T01:17:05;10.30;99.90
8820;DHT22;4446;50.876;4.736;2023-10-31T01:19:32;10.30;99.90
8820;DHT22;4446;50.876;4.736;2023-10-31T01:21:59;10.30;99.90
8820;DHT22;4446;50.876;4.736;2023-10-31T01:24:26;10.30;99.90
8820;DHT22;4446;50.876;4.736;2023-10-31T01:26:53;10.30;99.90
8820;DHT22;4446;50.876;4.736;2023-10-31T01:29:20;10.30;99.90
8820;DHT22;4446;50.876;4.736;2023-10-31T01:31:47;10.30;99.90
8820;DHT22;4446;50.876;4.736;2023-10-31T01:34:15;10.30;99.90
8820;DHT22;4446;50.876;4.736;2023-10-31T01:36:42;10.30;99.90
8820;DHT22;4446;50.876;4.736;2023-10-31T01:39:09;10.30;99.90
8820;DHT22;4446;50.876;4.736;2023-10-31T01:41:36;10.40;99.90
8820;DHT22;4446;50.876;4.736;2023-10-31T01:44:03;10.30;99.90
8820;DHT22;4446;50.876;4.736;2023-10-31T01:46:30;10.40;99.90
8820;DHT22;4446;50.876;4.736;2023-10-31T01:48:57;10.40;99.90
8820;DHT22;4446;50.876;4.736;2023-10-31T01:51:26;10.40;99.90
8820;DHT22;4446;50.876;4.736;2023-10-31T01:53:54;10.40;99.90
8820;DHT22;4446;50.876;4.736;2023-10-31T01:56:21;10.30;99.90
8820;DHT22;4446;50.876;4.736;2023-10-31T01:58:49;10.40;99.90
8820;DHT22;4446;50.876;4.736;2023-10-31T02:01:16;10.30;99.90
8820;DHT22;4446;50.876;4.736;2023-10-31T02:03:43;10.40;99.90
8820;DHT22;4446;50.876;4.736;2023-10-31T02:06:10;10.30;99.90
8820;DHT22;4446;50.876;4.736;2023-10-31T02:08:38;10.20;99.90
8820;DHT22;4446;50.876;4.736;2023-10-31T02:11:06;10.10;99.90
8820;DHT22;4446;50.876;4.736;2023-10-31T02:13:36;10.00;99.90
8820;DHT22;4446;50.876;4.736;2023-10-31T02:16:03;9.90;99.90
8820;DHT22;4446;50.876;4.736;2023-10-31T02:18:30;9.80;99.90
8820;DHT22;4446;50.876;4.736;2023-10-31T02:20:58;9.90;99.90
8820;DHT22;4446;50.876;4.736;2023-10-31T02:23:26;9.90;99.90
8820;DHT22;4446;50.876;4.736;2023-10-31T02:25:53;9.90;99.90
8820;DHT22;4446;50.876;4.736;2023-10-31T02:28:20;9.90;99.90
8820;DHT22;4446;50.876;4.736;2023-10-31T02:30:47;10.00;99.90
8820;DHT22;4446;50.876;4.736;2023-10-31T02:33:14;10.10;99.90
8820;DHT22;4446;50.876;4.736;2023-10-31T02:35:40;10.00;99.90
8820;DHT22;4446;50.876;4.736;2023-10-31T02:38:07;10.00;99.90
8820;DHT22;4446;50.876;4.736;2023-10-31T02:40:36;9.90;99.90
8820;DHT22;4446;50.876;4.736;2023-10-31T02:43:03;10.00;99.90
8820;DHT22;4446;50.876;4.736;2023-10-31T02:45:29;9.90;99.90
8820;DHT22;4446;50.876;4.736;2023-10-31T02:47:56;9.80;99.90
8820;DHT22;4446;50.876;4.736;2023-10-31T02:50:24;9.80;99.90
8820;DHT22;4446;50.876;4.736;2023-10-31T02:52:50;9.80;99.90
8820;DHT22;4446;50.876;4.736;2023-10-31T02:55:17;9.80;99.90
8820;DHT22;4446;50.876;4.736;2023-10-31T02:57:46;9.80;99.90
8820;DHT22;4446;50.876;4.736;2023-10-31T03:00:14;9.70;99.90
8820;DHT22;4446;50.876;4.736;2023-10-31T03:02:41;9.80;99.90
8820;DHT22;4446;50.876;4.736;2023-10-31T03:05:08;9.80;99.90
8820;DHT22;4446;50.876;4.736;2023-10-31T03:07:35;9.70;99.90
8820;DHT22;4446;50.876;4.736;2023-10-31T03:10:02;9.70;99.90
8820;DHT22;4446;50.876;4.736;2023-10-31T03:12:29;9.70;99.90
8820;DHT22;4446;50.876;4.736;2023-10-31T03:14:58;9.70;99.90
8820;DHT22;4446;50.876;4.736;2023-10-31T03:17:24;9.70;99.90
8820;DHT22;4446;50.876;4.736;2023-10-31T03:19:53;9.70;99.90
8820;DHT22;4446;50.876;4.736;2023-10-31T03:22:20;9.80;99.90
8820;DHT22;4446;50.876;4.736;2023-10-31T03:24:47;9.80;99.90
8820;DHT22;4446;50.876;4.736;2023-10-31T03:27:14;9.80;99.90
8820;DHT22;4446;50.876;4.736;2023-10-31T03:29:41;9.80;99.90
8820;DHT22;4446;50.876;4.736;2023-10-31T03:32:09;9.90;99.90
8820;DHT22;4446;50.876;4.736;2023-10-31T03:34:36;9.90;99.90
8820;DHT22;4446;50.876;4.736;2023-10-31T03:37:04;9.90;99.90
8820;DHT22;4446;50.876;4.736;2023-10-31T03:39:31;9.90;99.90
8820;DHT22;4446;50.876;4.736;2023-10-31T03:41:58;9.90;99.90
8820;DHT22;4446;50.876;4.736;2023-10-31T03:44:25;9.90;99.90
8820;DHT22;4446;50.876;4.736;2023-10-31T03:46:52;9.90;99.90
8820;DHT22;4446;50.876;4.736;2023-10-31T03:49:20;9.80;99.90
8820;DHT22;4446;50.876;4.736;2023-10-31T03:51:47;9.80;99.90
8820;DHT22;4446;50.876;4.736;2023-10-31T03:54:14;9.80;99.90
8820;DHT22;4446;50.876;4.736;2023-10-31T03:56:43;9.70;99.90
8820;DHT22;4446;50.876;4.736;2023-10-31T03:59:10;9.70;99.90
8820;DHT22;4446;50.876;4.736;2023-10-31T04:01:37;9.70;99.90
8820;DHT22;4446;50.876;4.736;2023-10-31T04:04:04;9.60;99.90
8820;DHT22;4446;50.876;4.736;2023-10-31T04:06:33;9.50;99.90
8820;DHT22;4446;50.876;4.736;2023-10-31T04:09:00;9.40;99.90
8820;DHT22;4446;50.876;4.736;2023-10-31T04:11:27;9.40;99.90
8820;DHT22;4446;50.876;4.736;2023-10-31T04:13:54;9.40;99.90
8820;DHT22;4446;50.876;4.736;2023-10-31T04:16:21;9.30;99.90
8820;DHT22;4446;50.876;4.736;2023-10-31T04:18:48;9.30;99.90
8820;DHT22;4446;50.876;4.736;2023-10-31T04:21:15;9.20;99.90
8820;DHT22;4446;50.876;4.736;2023-10-31T04:23:44;9.10;99.90
8820;DHT22;4446;50.876;4.736;2023-10-31T04:26:11;9.00;99.90
8820;DHT22;4446;50.876;4.736;2023-10-31T04:28:37;9.00;99.90
8820;DHT22;4446;50.876;4.736;2023-10-31T04:31:05;9.00;99.90
8820;DHT22;4446;50.876;4.736;2023-10-31T04:33:32;9.00;99.90
8820;DHT22;4446;50.876;4.736;2023-10-31T04:35:59;9.00;99.90
8820;DHT22;4446;50.876;4.736;2023-10-31T04:38:27;9.00;99.90
8820;DHT22;4446;50.876;4.736;2023-10-31T04:40:56;9.00;99.90
8820;DHT22;4446;50.876;4.736;2023-10-31T04:43:23;9.00;99.90
8820;DHT22;4446;50.876;4.736;2023-10-31T04:45:50;9.00;99.90
8820;DHT22;4446;50.876;4.736;2023-10-31T04:48:16;8.90;99.90
8820;DHT22;4446;50.876;4.736;2023-10-31T04:50:43;8.90;99.90
8820;DHT22;4446;50.876;4.736;2023-10-31T04:53:10;8.90;99.90
8820;DHT22;4446;50.876;4.736;2023-10-31T04:55:37;8.90;99.90
8820;DHT22;4446;50.876;4.736;2023-10-31T04:58:05;8.80;99.90
8820;DHT22;4446;50.876;4.736;2023-10-31T05:00:32;8.90;99.90
8820;DHT22;4446;50.876;4.736;2023-10-31T05:02:59;8.90;99.90
8820;DHT22;4446;50.876;4.736;2023-10-31T05:05:28;8.90;99.90
8820;DHT22;4446;50.876;4.736;2023-10-31T05:07:55;8.90;99.90
8820;DHT22;4446;50.876;4.736;2023-10-31T05:10:22;8.90;99.90
8820;DHT22;4446;50.876;4.736;2023-10-31T05:12:49;8.80;99.90
8820;DHT22;4446;50.876;4.736;2023-10-31T05:15:17;8.80;99.90
8820;DHT22;4446;50.876;4.736;2023-10-31T05:17:43;8.80;99.90
8820;DHT22;4446;50.876;4.736;2023-10-31T05:20:11;8.80;99.90
8820;DHT22;4446;50.876;4.736;2023-10-31T05:22:38;8.70;99.90
8820;DHT22;4446;50.876;4.736;2023-10-31T05:25:05;8.70;99.90
8820;DHT22;4446;50.876;4.736;2023-10-31T05:27:32;8.90;99.90
8820;DHT22;4446;50.876;4.736;2023-10-31T05:29:59;9.00;99.90
8820;DHT22;4446;50.876;4.736;2023-10-31T05:32:27;9.00;99.90
8820;DHT22;4446;50.876;4.736;2023-10-31T05:34:54;9.00;99.90
8820;DHT22;4446;50.876;4.736;2023-10-31T05:37:21;8.90;99.90
8820;DHT22;4446;50.876;4.736;2023-10-31T05:39:49;8.90;99.90
8820;DHT22;4446;50.876;4.736;2023-10-31T05:42:16;8.90;99.90
8820;DHT22;4446;50.876;4.736;2023-10-31T05:44:43;9.00;99.90
8820;DHT22;4446;50.876;4.736;2023-10-31T05:47:10;9.10;99.90
8820;DHT22;4446;50.876;4.736;2023-10-31T05:49:38;9.20;99.90
8820;DHT22;4446;50.876;4.736;2023-10-31T05:52:05;9.20;99.90
8820;DHT22;4446;50.876;4.736;2023-10-31T05:54:32;9.30;99.90
8820;DHT22;4446;50.876;4.736;2023-10-31T05:56:59;9.30;99.90
8820;DHT22;4446;50.876;4.736;2023-10-31T05:59:26;9.30;99.90
8820;DHT22;4446;50.876;4.736;2023-10-31T06:01:53;9.30;99.90
8820;DHT22;4446;50.876;4.736;2023-10-31T06:04:20;9.40;99.90
8820;DHT22;4446;50.876;4.736;2023-10-31T06:06:48;9.40;99.90
8820;DHT22;4446;50.876;4.736;2023-10-31T06:09:15;9.50;99.90
8820;DHT22;4446;50.876;4.736;2023-10-31T06:11:42;9.50;99.90
8820;DHT22;4446;50.876;4.736;2023-10-31T06:14:10;9.50;99.90
8820;DHT22;4446;50.876;4.736;2023-10-31T06:16:40;9.50;99.90
8820;DHT22;4446;50.876;4.736;2023-10-31T06:19:07;9.50;99.90
8820;DHT22;4446;50.876;4.736;2023-10-31T06:21:35;9.50;99.90
8820;DHT22;4446;50.876;4.736;2023-10-31T06:24:04;9.50;99.90
8820;DHT22;4446;50.876;4.736;2023-10-31T06:26:31;9.50;99.90
8820;DHT22;4446;50.876;4.736;2023-10-31T06:28:58;9.60;99.90
8820;DHT22;4446;50.876;4.736;2023-10-31T06:31:24;9.50;99.90
8820;DHT22;4446;50.876;4.736;2023-10-31T06:33:51;9.50;99.90
8820;DHT22;4446;50.876;4.736;2023-10-31T06:36:18;9.50;99.90
8820;DHT22;4446;50.876;4.736;2023-10-31T06:38:45;9.50;99.90
8820;DHT22;4446;50.876;4.736;2023-10-31T06:41:14;9.40;99.90
8820;DHT22;4446;50.876;4.736;2023-10-31T06:43:41;9.30;99.90
8820;DHT22;4446;50.876;4.736;2023-10-31T06:46:08;9.30;99.90
8820;DHT22;4446;50.876;4.736;2023-10-31T06:48:35;9.10;99.90
8820;DHT22;4446;50.876;4.736;2023-10-31T06:51:02;9.10;99.90
8820;DHT22;4446;50.876;4.736;2023-10-31T06:53:29;9.10;99.90
8820;DHT22;4446;50.876;4.736;2023-10-31T06:55:56;9.10;99.90
8820;DHT22;4446;50.876;4.736;2023-10-31T06:58:24;9.10;99.90
8820;DHT22;4446;50.876;4.736;2023-10-31T07:00:51;9.10;99.90
8820;DHT22;4446;50.876;4.736;2023-10-31T07:03:18;9.20;99.90
8820;DHT22;4446;50.876;4.736;2023-10-31T07:05:45;9.20;99.90
8820;DHT22;4446;50.876;4.736;2023-10-31T07:08:12;9.20;99.90
8820;DHT22;4446;50.876;4.736;2023-10-31T07:10:39;9.10;99.90
8820;DHT22;4446;50.876;4.736;2023-10-31T07:13:06;9.10;99.90
8820;DHT22;4446;50.876;4.736;2023-10-31T07:15:34;9.10;99.90
8820;DHT22;4446;50.876;4.736;2023-10-31T07:18:04;9.10;99.90
8820;DHT22;4446;50.876;4.736;2023-10-31T07:20:33;9.10;99.90
8820;DHT22;4446;50.876;4.736;2023-10-31T07:23:00;9.20;99.90
8820;DHT22;4446;50.876;4.736;2023-10-31T07:25:27;9.20;99.90
8820;DHT22;4446;50.876;4.736;2023-10-31T07:27:54;9.20;99.90
8820;DHT22;4446;50.876;4.736;2023-10-31T07:30:21;9.20;99.90
8820;DHT22;4446;50.876;4.736;2023-10-31T07:32:49;9.20;99.90
8820;DHT22;4446;50.876;4.736;2023-10-31T07:35:16;9.20;99.90
8820;DHT22;4446;50.876;4.736;2023-10-31T07:37:45;9.30;99.90
8820;DHT22;4446;50.876;4.736;2023-10-31T07:40:12;9.30;99.90
8820;DHT22;4446;50.876;4.736;2023-10-31T07:42:39;9.30;99.90
8820;DHT22;4446;50.876;4.736;2023-10-31T07:45:07;9.50;99.90
8820;DHT22;4446;50.876;4.736;2023-10-31T07:47:34;9.50;99.90
8820;DHT22;4446;50.876;4.736;2023-10-31T07:50:02;9.60;99.90
8820;DHT22;4446;50.876;4.736;2023-10-31T07:52:29;9.60;99.90
8820;DHT22;4446;50.876;4.736;2023-10-31T07:54:56;9.70;99.90
8820;DHT22;4446;50.876;4.736;2023-10-31T07:57:23;9.70;99.90
8820;DHT22;4446;50.876;4.736;2023-10-31T07:59:50;9.70;99.90
8820;DHT22;4446;50.876;4.736;2023-10-31T08:02:17;9.80;99.90
8820;DHT22;4446;50.876;4.736;2023-10-31T08:04:44;9.80;99.90
8820;DHT22;4446;50.876;4.736;2023-10-31T08:07:13;9.80;99.90
8820;DHT22;4446;50.876;4.736;2023-10-31T08:09:40;9.90;99.90
8820;DHT22;4446;50.876;4.736;2023-10-31T08:12:07;9.90;99.90
8820;DHT22;4446;50.876;4.736;2023-10-31T08:14:34;9.90;99.90
8820;DHT22;4446;50.876;4.736;2023-10-31T08:17:02;10.00;99.90
8820;DHT22;4446;50.876;4.736;2023-10-31T08:19:29;10.10;99.90
8820;DHT22;4446;50.876;4.736;2023-10-31T08:21:56;10.20;99.90
8820;DHT22;4446;50.876;4.736;2023-10-31T08:24:24;10.10;99.90
8820;DHT22;4446;50.876;4.736;2023-10-31T08:26:51;10.20;99.90
8820;DHT22;4446;50.876;4.736;2023-10-31T08:29:18;10.20;99.90
8820;DHT22;4446;50.876;4.736;2023-10-31T08:31:45;10.40;99.90
8820;DHT22;4446;50.876;4.736;2023-10-31T08:34:12;10.40;99.90
8820;DHT22;4446;50.876;4.736;2023-10-31T08:36:40;10.40;99.90
8820;DHT22;4446;50.876;4.736;2023-10-31T08:39:07;10.50;99.90
8820;DHT22;4446;50.876;4.736;2023-10-31T08:41:35;10.40;99.90
8820;DHT22;4446;50.876;4.736;2023-10-31T08:44:05;10.50;99.90
8820;DHT22;4446;50.876;4.736;2023-10-31T08:46:32;10.50;99.90
8820;DHT22;4446;50.876;4.736;2023-10-31T08:48:59;10.60;99.90
8820;DHT22;4446;50.876;4.736;2023-10-31T08:51:26;10.70;99.90
8820;DHT22;4446;50.876;4.736;2023-10-31T08:53:53;10.70;99.90
8820;DHT22;4446;50.876;4.736;2023-10-31T08:56:20;10.70;99.90
8820;DHT22;4446;50.876;4.736;2023-10-31T08:58:49;10.70;99.90
8820;DHT22;4446;50.876;4.736;2023-10-31T09:01:16;10.70;99.90
8820;DHT22;4446;50.876;4.736;2023-10-31T09:03:43;10.60;99.90
8820;DHT22;4446;50.876;4.736;2023-10-31T09:06:10;10.70;99.90
8820;DHT22;4446;50.876;4.736;2023-10-31T09:08:37;10.70;99.90
8820;DHT22;4446;50.876;4.736;2023-10-31T09:11:04;10.70;99.90
8820;DHT22;4446;50.876;4.736;2023-10-31T09:13:31;10.80;99.90
8820;DHT22;4446;50.876;4.736;2023-10-31T09:16:00;10.90;99.90
8820;DHT22;4446;50.876;4.736;2023-10-31T09:18:27;11.00;99.90
8820;DHT22;4446;50.876;4.736;2023-10-31T09:20:54;11.20;99.90
8820;DHT22;4446;50.876;4.736;2023-10-31T09:23:21;11.30;99.90
8820;DHT22;4446;50.876;4.736;2023-10-31T09:25:48;11.40;99.90
8820;DHT22;4446;50.876;4.736;2023-10-31T09:28:15;11.40;99.90
8820;DHT22;4446;50.876;4.736;2023-10-31T09:30:42;11.50;99.90
8820;DHT22;4446;50.876;4.736;2023-10-31T09:33:10;11.60;99.90
8820;DHT22;4446;50.876;4.736;2023-10-31T09:35:38;11.70;99.90
8820;DHT22;4446;50.876;4.736;2023-10-31T09:38:05;11.70;99.90
8820;DHT22;4446;50.876;4.736;2023-10-31T09:40:32;11.80;99.90
8820;DHT22;4446;50.876;4.736;2023-10-31T09:42:59;11.80;99.90
8820;DHT22;4446;50.876;4.736;2023-10-31T09:45:26;11.80;99.90
8820;DHT22;4446;50.876;4.736;2023-10-31T09:47:53;11.80;99.90
8820;DHT22;4446;50.876;4.736;2023-10-31T09:50:22;11.80;99.90
8820;DHT22;4446;50.876;4.736;2023-10-31T09:52:49;11.60;99.90
8820;DHT22;4446;50.876;4.736;2023-10-31T09:55:17;11.60;99.90
8820;DHT22;4446;50.876;4.736;2023-10-31T09:57:45;11.60;99.90
8820;DHT22;4446;50.876;4.736;2023-10-31T10:00:13;11.70;99.90
8820;DHT22;4446;50.876;4.736;2023-10-31T10:02:40;11.70;99.90
8820;DHT22;4446;50.876;4.736;2023-10-31T10:05:09;11.80;99.90
8820;DHT22;4446;50.876;4.736;2023-10-31T10:07:41;11.80;99.90
8820;DHT22;4446;50.876;4.736;2023-10-31T10:10:10;11.70;99.90
8820;DHT22;4446;50.876;4.736;2023-10-31T10:12:37;11.70;99.90
8820;DHT22;4446;50.876;4.736;2023-10-31T10:15:05;11.70;99.90
8820;DHT22;4446;50.876;4.736;2023-10-31T10:17:32;11.90;99.90
8820;DHT22;4446;50.876;4.736;2023-10-31T10:20:07;11.90;99.90
8820;DHT22;4446;50.876;4.736;2023-10-31T10:22:38;12.00;99.90
8820;DHT22;4446;50.876;4.736;2023-10-31T10:25:06;12.00;99.90
8820;DHT22;4446;50.876;4.736;2023-10-31T10:27:34;12.00;99.90
8820;DHT22;4446;50.876;4.736;2023-10-31T10:30:02;11.90;99.90
8820;DHT22;4446;50.876;4.736;2023-10-31T10:32:30;11.80;99.90
8820;DHT22;4446;50.876;4.736;2023-10-31T10:34:57;11.90;99.90
8820;DHT22;4446;50.876;4.736;2023-10-31T10:37:25;11.80;99.90
8820;DHT22;4446;50.876;4.736;2023-10-31T10:39:54;11.90;99.90
8820;DHT22;4446;50.876;4.736;2023-10-31T10:42:30;12.00;99.90
8820;DHT22;4446;50.876;4.736;2023-10-31T10:45:02;12.20;99.90
8820;DHT22;4446;50.876;4.736;2023-10-31T10:47:30;12.50;99.90
8820;DHT22;4446;50.876;4.736;2023-10-31T10:49:59;12.40;99.90
8820;DHT22;4446;50.876;4.736;2023-10-31T10:52:29;12.40;99.90
8820;DHT22;4446;50.876;4.736;2023-10-31T10:55:04;12.40;99.90
8820;DHT22;4446;50.876;4.736;2023-10-31T10:57:42;12.40;99.90
8820;DHT22;4446;50.876;4.736;2023-10-31T11:00:13;12.40;99.90
8820;DHT22;4446;50.876;4.736;2023-10-31T11:02:43;12.60;99.90
8820;DHT22;4446;50.876;4.736;2023-10-31T11:05:11;12.60;99.90
8820;DHT22;4446;50.876;4.736;2023-10-31T11:07:40;12.60;99.90
8820;DHT22;4446;50.876;4.736;2023-10-31T11:10:09;12.60;99.90
8820;DHT22;4446;50.876;4.736;2023-10-31T11:12:37;12.80;99.90
8820;DHT22;4446;50.876;4.736;2023-10-31T11:15:06;12.90;99.90
8820;DHT22;4446;50.876;4.736;2023-10-31T11:17:35;12.90;99.90
8820;DHT22;4446;50.876;4.736;2023-10-31T11:20:04;12.70;99.90
8820;DHT22;4446;50.876;4.736;2023-10-31T11:22:38;12.60;99.90
8820;DHT22;4446;50.876;4.736;2023-10-31T11:25:09;12.50;99.90
8820;DHT22;4446;50.876;4.736;2023-10-31T11:27:36;12.50;99.90
8820;DHT22;4446;50.876;4.736;2023-10-31T11:30:06;12.60;99.90
8820;DHT22;4446;50.876;4.736;2023-10-31T11:32:33;12.70;99.90
8820;DHT22;4446;50.876;4.736;2023-10-31T11:35:00;12.80;99.90
8820;DHT22;4446;50.876;4.736;2023-10-31T11:37:32;12.80;99.90
8820;DHT22;4446;50.876;4.736;2023-10-31T11:40:22;12.90;99.90
8820;DHT22;4446;50.876;4.736;2023-10-31T11:42:50;12.80;99.90
8820;DHT22;4446;50.876;4.736;2023-10-31T11:45:30;12.60;99.90
8820;DHT22;4446;50.876;4.736;2023-10-31T11:47:57;12.50;99.90
8820;DHT22;4446;50.876;4.736;2023-10-31T11:50:25;12.40;99.90
8820;DHT22;4446;50.876;4.736;2023-10-31T11:52:59;12.40;99.90
8820;DHT22;4446;50.876;4.736;2023-10-31T11:55:29;12.40;99.90
8820;DHT22;4446;50.876;4.736;2023-10-31T11:57:56;12.50;99.90
8820;DHT22;4446;50.876;4.736;2023-10-31T12:00:24;12.60;99.90
8820;DHT22;4446;50.876;4.736;2023-10-31T12:02:58;12.70;99.90
8820;DHT22;4446;50.876;4.736;2023-10-31T12:05:25;12.60;99.90
8820;DHT22;4446;50.876;4.736;2023-10-31T12:07:53;12.40;99.90
8820;DHT22;4446;50.876;4.736;2023-10-31T12:10:24;12.20;99.90
8820;DHT22;4446;50.876;4.736;2023-10-31T12:12:53;12.30;99.90
8820;DHT22;4446;50.876;4.736;2023-10-31T12:15:20;12.20;99.90
8820;DHT22;4446;50.876;4.736;2023-10-31T12:17:48;12.10;99.90
8820;DHT22;4446;50.876;4.736;2023-10-31T12:20:15;12.10;99.90
8820;DHT22;4446;50.876;4.736;2023-10-31T12:22:43;12.10;99.90
8820;DHT22;4446;50.876;4.736;2023-10-31T12:25:11;12.10;99.90
8820;DHT22;4446;50.876;4.736;2023-10-31T12:27:45;12.10;99.90
8820;DHT22;4446;50.876;4.736;2023-10-31T12:30:15;12.00;99.90
8820;DHT22;4446;50.876;4.736;2023-10-31T12:32:44;12.00;99.90
8820;DHT22;4446;50.876;4.736;2023-10-31T12:35:12;11.90;99.90
8820;DHT22;4446;50.876;4.736;2023-10-31T12:37:45;11.90;99.90
8820;DHT22;4446;50.876;4.736;2023-10-31T12:40:14;11.80;99.90
8820;DHT22;4446;50.876;4.736;2023-10-31T12:42:42;11.80;99.90
8820;DHT22;4446;50.876;4.736;2023-10-31T12:45:10;11.70;99.90
8820;DHT22;4446;50.876;4.736;2023-10-31T12:47:39;11.60;99.90
8820;DHT22;4446;50.876;4.736;2023-10-31T12:50:07;11.70;99.90
8820;DHT22;4446;50.876;4.736;2023-10-31T12:52:48;11.70;99.90
8820;DHT22;4446;50.876;4.736;2023-10-31T12:55:16;11.60;99.90
8820;DHT22;4446;50.876;4.736;2023-10-31T12:57:43;11.50;99.90
8820;DHT22;4446;50.876;4.736;2023-10-31T13:00:13;11.40;99.90
8820;DHT22;4446;50.876;4.736;2023-10-31T13:02:42;11.40;99.90
8820;DHT22;4446;50.876;4.736;2023-10-31T13:05:11;11.30;99.90
8820;DHT22;4446;50.876;4.736;2023-10-31T13:07:39;11.40;99.90
8820;DHT22;4446;50.876;4.736;2023-10-31T13:10:07;11.30;99.90
8820;DHT22;4446;50.876;4.736;2023-10-31T13:12:35;11.30;99.90
8820;DHT22;4446;50.876;4.736;2023-10-31T13:15:04;11.40;99.90
8820;DHT22;4446;50.876;4.736;2023-10-31T13:17:31;11.40;99.90
8820;DHT22;4446;50.876;4.736;2023-10-31T13:19:59;11.40;99.90
8820;DHT22;4446;50.876;4.736;2023-10-31T13:22:26;11.40;99.90
8820;DHT22;4446;50.876;4.736;2023-10-31T13:24:53;11.40;99.90
8820;DHT22;4446;50.876;4.736;2023-10-31T13:27:20;11.40;99.90
8820;DHT22;4446;50.876;4.736;2023-10-31T13:29:47;11.40;99.90
8820;DHT22;4446;50.876;4.736;2023-10-31T13:32:16;11.30;99.90
8820;DHT22;4446;50.876;4.736;2023-10-31T13:34:43;11.30;99.90
8820;DHT22;4446;50.876;4.736;2023-10-31T13:37:11;11.40;99.90
8820;DHT22;4446;50.876;4.736;2023-10-31T13:39:38;11.50;99.90
8820;DHT22;4446;50.876;4.736;2023-10-31T13:42:05;11.50;99.90
8820;DHT22;4446;50.876;4.736;2023-10-31T13:44:32;11.60;99.90
8820;DHT22;4446;50.876;4.736;2023-10-31T13:46:59;11.50;99.90
8820;DHT22;4446;50.876;4.736;2023-10-31T13:49:26;11.50;99.90
8820;DHT22;4446;50.876;4.736;2023-10-31T13:51:54;11.50;99.90
8820;DHT22;4446;50.876;4.736;2023-10-31T13:54:22;11.50;99.90
8820;DHT22;4446;50.876;4.736;2023-10-31T13:56:49;11.50;99.90
8820;DHT22;4446;50.876;4.736;2023-10-31T13:59:16;11.50;99.90
8820;DHT22;4446;50.876;4.736;2023-10-31T14:01:44;11.50;99.90
8820;DHT22;4446;50.876;4.736;2023-10-31T14:04:12;11.40;99.90
8820;DHT22;4446;50.876;4.736;2023-10-31T14:06:40;11.40;99.90
8820;DHT22;4446;50.876;4.736;2023-10-31T14:09:09;11.40;99.90
8820;DHT22;4446;50.876;4.736;2023-10-31T14:11:39;11.50;99.90
8820;DHT22;4446;50.876;4.736;2023-10-31T14:14:06;11.60;99.90
8820;DHT22;4446;50.876;4.736;2023-10-31T14:16:36;11.50;99.90
8820;DHT22;4446;50.876;4.736;2023-10-31T14:19:04;11.70;99.90
8820;DHT22;4446;50.876;4.736;2023-10-31T14:21:33;11.80;99.90
8820;DHT22;4446;50.876;4.736;2023-10-31T14:24:00;12.00;99.90
8820;DHT22;4446;50.876;4.736;2023-10-31T14:26:27;12.10;99.90
8820;DHT22;4446;50.876;4.736;2023-10-31T14:28:56;12.20;99.90
8820;DHT22;4446;50.876;4.736;2023-10-31T14:31:23;12.20;99.90
8820;DHT22;4446;50.876;4.736;2023-10-31T14:33:50;12.20;99.90
8820;DHT22;4446;50.876;4.736;2023-10-31T14:36:17;12.30;99.90
8820;DHT22;4446;50.876;4.736;2023-10-31T14:38:44;12.30;99.90
8820;DHT22;4446;50.876;4.736;2023-10-31T14:41:11;12.20;99.90
8820;DHT22;4446;50.876;4.736;2023-10-31T14:43:40;12.10;99.90
8820;DHT22;4446;50.876;4.736;2023-10-31T14:46:08;12.10;99.90
8820;DHT22;4446;50.876;4.736;2023-10-31T14:48:35;12.10;99.90
8820;DHT22;4446;50.876;4.736;2023-10-31T14:51:02;12.00;99.90
8820;DHT22;4446;50.876;4.736;2023-10-31T14:53:29;11.90;99.90
8820;DHT22;4446;50.876;4.736;2023-10-31T14:55:56;11.80;99.90
8820;DHT22;4446;50.876;4.736;2023-10-31T14:58:23;11.80;99.90
8820;DHT22;4446;50.876;4.736;2023-10-31T15:00:50;11.80;99.90
8820;DHT22;4446;50.876;4.736;2023-10-31T15:03:19;11.80;99.90
8820;DHT22;4446;50.876;4.736;2023-10-31T15:05:45;11.80;99.90
8820;DHT22;4446;50.876;4.736;2023-10-31T15:08:12;11.80;99.90
8820;DHT22;4446;50.876;4.736;2023-10-31T15:10:39;11.70;99.90
8820;DHT22;4446;50.876;4.736;2023-10-31T15:13:07;11.70;99.90
8820;DHT22;4446;50.876;4.736;2023-10-31T15:15:33;11.70;99.90
8820;DHT22;4446;50.876;4.736;2023-10-31T15:18:00;11.70;99.90
8820;DHT22;4446;50.876;4.736;2023-10-31T15:20:29;11.70;99.90
8820;DHT22;4446;50.876;4.736;2023-10-31T15:22:56;11.60;99.90
8820;DHT22;4446;50.876;4.736;2023-10-31T15:25:23;11.50;99.90
8820;DHT22;4446;50.876;4.736;2023-10-31T15:27:49;11.50;99.90
8820;DHT22;4446;50.876;4.736;2023-10-31T15:30:16;11.40;99.90
8820;DHT22;4446;50.876;4.736;2023-10-31T15:32:43;11.30;99.90
8820;DHT22;4446;50.876;4.736;2023-10-31T15:35:11;11.30;99.90
8820;DHT22;4446;50.876;4.736;2023-10-31T15:37:42;11.40;99.90
8820;DHT22;4446;50.876;4.736;2023-10-31T15:40:10;11.40;99.90
8820;DHT22;4446;50.876;4.736;2023-10-31T15:42:37;11.40;99.90
8820;DHT22;4446;50.876;4.736;2023-10-31T15:45:06;11.40;99.90
8820;DHT22;4446;50.876;4.736;2023-10-31T15:47:33;11.40;99.90
8820;DHT22;4446;50.876;4.736;2023-10-31T15:50:00;11.40;99.90
8820;DHT22;4446;50.876;4.736;2023-10-31T15:52:26;11.30;99.90
8820;DHT22;4446;50.876;4.736;2023-10-31T15:54:55;11.20;99.90
8820;DHT22;4446;50.876;4.736;2023-10-31T15:57:22;11.10;99.90
8820;DHT22;4446;50.876;4.736;2023-10-31T15:59:50;11.00;99.90
8820;DHT22;4446;50.876;4.736;2023-10-31T16:02:17;10.90;99.90
8820;DHT22;4446;50.876;4.736;2023-10-31T16:04:44;10.80;99.90
8820;DHT22;4446;50.876;4.736;2023-10-31T16:07:11;10.80;99.90
8820;DHT22;4446;50.876;4.736;2023-10-31T16:09:38;10.80;99.90